Stanley, ID (83278)

8:52 AM MDT on October 21, 2014 (GMT -0600)
Stanley | Change Station
CLOSE
Current Station
Airport
Location: Stanley,
Elevation: 6496 ft
Nearby Weather Stations

Elev 6496 ft 44.17 °N, 114.93 °W | Updated 1 hour ago

Rain
Rain
36 °F
Feels Like 30 °F
N
8
Wind Variable Wind from North
Gusts 16 mph

Today
High -- | Low -- °F
--% Chance of Precip.
Yesterday
High -- | Low -- °F
Precip. -- in
8:02 AM 6:45 PM
Waning Crescent, 5% visible
Pressure 29.77 in
Visibility -9999.0 miles
Clouds
Windchill 30 °F
Dew Point 34 °F
Humidity 93%
Rainfall 0.29 in
Snow Depth 0 in
UV Not available.
Pollen .40 out of 12
Air Quality Not available.
Flu Activity Sporadic
METAR KSNT 211351Z AUTO 01007KT 02/01 A2991 RMK AO1 SLP080 P0011 T00220011

More Conditions Fewer Conditions

Pressure 29.77 in
Visibility -9999.0 miles
Clouds
Windchill 30 °F
Dew Point 34 °F
Humidity 93%
Rainfall 0.29 in
Snow Depth 0 in
UV Not available.
Pollen .40 out of 12
Air Quality Not available.
Flu Activity Sporadic
METAR KSNT 211351Z AUTO 01007KT 02/01 A2991 RMK AO1 SLP080 P0011 T00220011

More Conditions Fewer Conditions

10-Day Weather Forecast

Almanac

Astronomy

Oct. 21, 2014 Rise Set
Actual Time 8:02 AM MDT 6:45 PM MDT
Civil Twilight 7:32 AM MDT 7:14 PM MDT
Nautical Twilight 6:58 AM MDT 7:48 PM MDT
Astronomical Twilight 6:25 AM MDT 8:22 PM MDT
Moon 5:45 AM MDT 5:45 PM MDT
Length of Visible Light 11h 42m
Length of Day
10h 43m
Tomorrow will be 2m 54s shorter.
Waning Crescent, 5% of the Moon is Illuminated
Today
Waning Crescent
Oct 23
New
Oct 30
First Quarter
Nov 6
Full
Nov 14
Last Quarter

Today's Extremes

State Highs State Lows

Community

WunderPhotos

Upload Photos

1,763,678 photos uploaded!

Nearby

Snow Depth

Station Depth Elevation
Banner Summit 0 in 7040 ft
Mill Creek Summit 1 in 8800 ft
Galena 1 in 7440 ft
Jackson Peak 1 in 7070 ft
Vienna Mine 0 in 8960 ft

Earthquake Activity

City Distance Mag. Time & Date
No recent earthquake activity has been reported nearby.
Minimum magnitude displayed is 2.5.

Coastal Water Temperatures

Place Temperature
No Stations Reporting

Nearby Weather Stations